Time;durP1;ratioP1;P1;durP2;ratioP2;P2;SDS_P1;SDS_P2;PMS_P1;PMS_P2;Temp;Humidity;BMP_temperature;BMP_pressure;BME280_temperature;BME280_humidity;BME280_pressure;Samples;Min_cycle;Max_cycle;Signal;HPM_P1;HPM_P2
2022/03/16 00:01:12;;;;;;;5.80;3.80;;;20.90;67.80;;;;;;7902475;28;20176;-48
2022/03/16 00:47:16;;;;;;;5.35;3.80;;;20.60;67.70;;;;;;7901264;28;20173;-48
2022/03/16 00:51:02;;;;;;;5.15;3.53;;;20.60;67.70;;;;;;7900942;28;20238;-48
2022/03/16 00:54:47;;;;;;;5.10;3.80;;;20.50;67.70;;;;;;7901040;28;20220;-47
2022/03/16 00:58:33;;;;;;;8.30;4.00;;;20.50;67.70;;;;;;7901500;28;20222;-51
2022/03/16 01:02:18;;;;;;;5.25;3.70;;;20.50;67.70;;;;;;7900017;28;20555;-49
2022/03/16 01:06:04;;;;;;;8.40;4.55;;;20.40;67.60;;;;;;7900608;28;20314;-47
2022/03/16 01:09:50;;;;;;;4.40;3.75;;;20.40;67.70;;;;;;7900486;28;20184;-49
2022/03/16 01:13:35;;;;;;;4.43;3.50;;;20.40;67.70;;;;;;7900711;28;20204;-50
2022/03/16 01:17:21;;;;;;;4.80;3.80;;;20.40;67.70;;;;;;7900868;28;20646;-52
2022/03/16 01:21:07;;;;;;;4.93;3.70;;;20.40;67.70;;;;;;7900548;28;20251;-49
2022/03/16 01:24:53;;;;;;;5.93;3.58;;;20.30;67.60;;;;;;7900595;28;20208;-52
2022/03/16 01:28:38;;;;;;;5.00;4.00;;;20.30;67.60;;;;;;7902234;28;20223;-54
2022/03/16 01:32:24;;;;;;;5.05;3.97;;;20.30;67.60;;;;;;7902826;28;20197;-47
2022/03/16 01:36:09;;;;;;;5.53;4.18;;;20.30;67.60;;;;;;7900494;28;20214;-47
2022/03/16 01:39:55;;;;;;;5.63;3.95;;;20.20;67.60;;;;;;7900323;28;20203;-47
2022/03/16 01:43:40;;;;;;;4.40;3.90;;;20.20;67.60;;;;;;7900561;28;20283;-48
2022/03/16 01:47:27;;;;;;;6.25;4.30;;;20.20;67.70;;;;;;7900855;28;20650;-47
2022/03/16 01:51:12;;;;;;;4.88;3.80;;;20.10;67.60;;;;;;7900295;28;20192;-49
2022/03/16 01:55:00;;;;;;;7.03;4.45;;;20.20;67.70;;;;;;7900408;28;20213;-50
2022/03/16 01:58:46;;;;;;;4.72;4.03;;;20.10;67.60;;;;;;7900255;28;20161;-49
2022/03/16 02:02:33;;;;;;;6.53;4.15;;;20.10;67.70;;;;;;7899363;28;20200;-47
2022/03/16 02:06:18;;;;;;;5.60;4.10;;;20.10;67.70;;;;;;7899873;28;20184;-48
2022/03/16 02:10:05;;;;;;;4.15;3.47;;;20.10;67.70;;;;;;7899802;28;20269;-47
2022/03/16 02:13:51;;;;;;;6.10;3.92;;;20.10;67.70;;;;;;7899691;28;20210;-49
2022/03/16 02:17:37;;;;;;;5.90;4.38;;;20.10;67.70;;;;;;7900479;28;20179;-49
2022/03/16 02:21:22;;;;;;;6.10;4.22;;;20.00;67.60;;;;;;7905278;28;20168;-49
2022/03/16 02:25:09;;;;;;;6.80;4.45;;;20.00;67.50;;;;;;7905467;28;20347;-47
2022/03/16 02:28:54;;;;;;;5.50;4.03;;;20.00;67.60;;;;;;7905469;28;20168;-51
2022/03/16 02:32:40;;;;;;;6.40;4.07;;;20.00;67.60;;;;;;7905225;28;20200;-47
2022/03/16 02:36:25;;;;;;;7.43;4.45;;;19.90;67.50;;;;;;7905152;28;20173;-49
2022/03/16 02:40:17;;;;;;;6.28;4.53;;;19.90;67.50;;;;;;7904881;28;20262;-51
2022/03/16 02:44:02;;;;;;;5.95;4.63;;;19.90;67.60;;;;;;7905013;28;20189;-47
2022/03/16 02:47:48;;;;;;;6.03;4.22;;;19.90;68.40;;;;;;7905142;28;20215;-51
2022/03/16 02:51:34;;;;;;;5.97;4.35;;;19.90;67.50;;;;;;7904785;28;20203;-52
2022/03/16 02:55:20;;;;;;;5.57;4.20;;;19.90;67.50;;;;;;7905001;28;20206;-48
2022/03/16 02:59:05;;;;;;;5.55;4.53;;;19.80;67.50;;;;;;7904974;28;20702;-48
2022/03/16 03:02:50;;;;;;;5.63;4.00;;;19.90;67.50;;;;;;7904593;28;20242;-50
2022/03/16 03:06:36;;;;;;;5.60;4.38;;;19.90;67.60;;;;;;7904488;28;20301;-51
2022/03/16 03:10:21;;;;;;;7.82;4.70;;;19.80;67.50;;;;;;7904127;28;20176;-50
2022/03/16 03:14:07;;;;;;;5.85;4.28;;;19.80;67.50;;;;;;7904051;28;20223;-49
2022/03/16 03:17:52;;;;;;;10.50;5.18;;;19.80;67.50;;;;;;7904030;28;20701;-49
2022/03/16 03:21:38;;;;;;;4.80;4.28;;;19.80;67.50;;;;;;7903557;28;20177;-50
2022/03/16 03:25:23;;;;;;;6.57;4.60;;;19.80;67.50;;;;;;7903773;28;20176;-50
2022/03/16 03:29:09;;;;;;;8.48;4.25;;;19.70;67.40;;;;;;7902551;28;20173;-49
2022/03/16 03:32:55;;;;;;;5.93;5.10;;;19.70;67.50;;;;;;7904215;28;20212;-47
2022/03/16 03:36:41;;;;;;;6.95;4.90;;;19.70;67.40;;;;;;7903492;28;20207;-49
2022/03/16 03:40:26;;;;;;;5.75;4.70;;;19.70;67.40;;;;;;7903012;28;20195;-47
2022/03/16 03:44:12;;;;;;;6.93;5.07;;;19.70;67.40;;;;;;7903031;28;20678;-49
2022/03/16 03:47:58;;;;;;;6.30;4.75;;;19.70;67.40;;;;;;7903009;28;20195;-47
2022/03/16 03:51:43;;;;;;;6.85;4.90;;;19.70;67.40;;;;;;7902531;28;20211;-47
2022/03/16 03:55:28;;;;;;;6.80;4.78;;;19.60;67.40;;;;;;7902686;28;20291;-48
2022/03/16 03:59:14;;;;;;;7.00;5.22;;;19.60;67.40;;;;;;7902600;28;20587;-50
2022/03/16 04:02:59;;;;;;;6.97;5.50;;;19.60;67.40;;;;;;7902683;28;20204;-47
2022/03/16 04:06:45;;;;;;;7.60;5.18;;;19.60;67.40;;;;;;7902733;28;20177;-48
2022/03/16 04:10:31;;;;;;;7.68;5.25;;;19.60;67.40;;;;;;7902380;28;20674;-51
2022/03/16 04:14:16;;;;;;;5.80;4.47;;;19.60;67.40;;;;;;7902267;28;20790;-47
2022/03/16 04:18:02;;;;;;;6.28;5.45;;;19.60;67.40;;;;;;7902230;28;20212;-47
2022/03/16 04:21:47;;;;;;;7.28;5.38;;;19.60;67.40;;;;;;7901719;28;20189;-47
2022/03/16 04:25:33;;;;;;;6.10;5.13;;;19.60;67.40;;;;;;7902023;28;20172;-49
2022/03/16 04:29:18;;;;;;;9.45;6.13;;;19.60;67.40;;;;;;7901568;28;20183;-48
2022/03/16 04:33:04;;;;;;;6.05;5.35;;;19.60;67.30;;;;;;7901591;28;20279;-47
2022/03/16 04:36:49;;;;;;;6.63;5.47;;;19.60;67.40;;;;;;7901624;28;20177;-49
2022/03/16 04:40:36;;;;;;;6.85;5.45;;;19.60;67.30;;;;;;7901092;28;20172;-47
2022/03/16 04:44:21;;;;;;;6.57;5.63;;;19.60;67.30;;;;;;7901295;28;20697;-47
2022/03/16 04:48:09;;;;;;;9.40;6.18;;;19.60;67.20;;;;;;7910665;28;20690;-48
2022/03/16 04:51:54;;;;;;;8.20;6.28;;;19.60;67.10;;;;;;7900653;28;20269;-47
2022/03/16 04:55:40;;;;;;;8.75;6.43;;;19.70;67.20;;;;;;7902649;28;20177;-51
2022/03/16 04:59:25;;;;;;;8.15;6.45;;;19.70;66.60;;;;;;7904224;28;20548;-47
2022/03/16 05:03:10;;;;;;;8.75;6.18;;;19.80;66.60;;;;;;7930821;28;20210;-48
2022/03/16 05:06:56;;;;;;;12.07;6.88;;;19.80;66.50;;;;;;7908666;28;20253;-52
2022/03/16 05:10:42;;;;;;;13.63;7.90;;;19.80;66.40;;;;;;7900923;28;20261;-51
2022/03/16 05:14:27;;;;;;;12.75;7.55;;;19.80;66.00;;;;;;7920655;28;20599;-49
2022/03/16 05:18:13;;;;;;;13.77;7.97;;;19.90;65.80;;;;;;7900368;28;20181;-49
2022/03/16 05:21:58;;;;;;;12.00;7.38;;;19.90;65.60;;;;;;7899329;28;20200;-51
2022/03/16 05:25:44;;;;;;;15.15;7.53;;;19.90;65.50;;;;;;7899828;28;20259;-52
2022/03/16 05:29:29;;;;;;;11.10;7.45;;;19.90;65.40;;;;;;7901395;28;20233;-49
2022/03/16 05:33:16;;;;;;;12.55;7.55;;;19.90;65.40;;;;;;7905506;28;20208;-51
2022/03/16 05:37:01;;;;;;;11.02;7.88;;;20.00;65.40;;;;;;7900182;28;20172;-48
2022/03/16 05:40:47;;;;;;;12.38;8.23;;;20.00;65.40;;;;;;7899345;28;20183;-53
2022/03/16 05:44:33;;;;;;;12.68;7.88;;;20.00;65.30;;;;;;7901846;28;20207;-51
2022/03/16 05:48:18;;;;;;;18.83;7.38;;;20.00;65.20;;;;;;7907071;28;20701;-48
2022/03/16 05:52:05;;;;;;;25.42;7.40;;;20.00;65.60;;;;;;7898999;28;20629;-48
2022/03/16 05:55:50;;;;;;;36.75;7.55;;;20.00;65.70;;;;;;7905468;28;20271;-48
2022/03/16 05:59:36;;;;;;;23.55;6.80;;;20.00;65.70;;;;;;7907956;28;20179;-50
2022/03/16 06:03:22;;;;;;;23.15;6.75;;;20.10;66.00;;;;;;7936758;28;20195;-51
2022/03/16 06:07:07;;;;;;;22.48;6.57;;;20.10;67.10;;;;;;7936986;28;20176;-50
2022/03/16 06:10:53;;;;;;;16.75;6.75;;;20.10;68.00;;;;;;7936422;28;20171;-48
2022/03/16 06:14:38;;;;;;;18.77;7.05;;;20.20;69.10;;;;;;7932597;28;20254;-52
2022/03/16 06:18:24;;;;;;;20.58;6.93;;;20.30;68.90;;;;;;7904993;28;20280;-51
2022/03/16 06:22:09;;;;;;;16.00;6.25;;;20.30;68.10;;;;;;7904223;28;20192;-48
2022/03/16 06:25:55;;;;;;;10.13;4.90;;;20.50;67.90;;;;;;7904419;28;20307;-51
2022/03/16 06:29:40;;;;;;;11.93;4.82;;;20.50;67.70;;;;;;7904070;28;20180;-51
2022/03/16 06:33:26;;;;;;;9.90;4.75;;;20.60;67.70;;;;;;7904289;28;20216;-48
2022/03/16 06:37:11;;;;;;;9.38;5.45;;;20.70;67.50;;;;;;7911367;28;20267;-51
2022/03/16 06:40:57;;;;;;;12.43;4.80;;;20.90;67.50;;;;;;7903579;28;20219;-48
2022/03/16 06:44:42;;;;;;;9.98;4.45;;;21.00;67.20;;;;;;7908567;28;20683;-48
2022/03/16 06:48:28;;;;;;;6.38;4.68;;;21.10;67.10;;;;;;7935611;28;20210;-53
2022/03/16 06:52:14;;;;;;;12.30;5.10;;;21.20;67.00;;;;;;7934521;28;20203;-49
2022/03/16 06:55:59;;;;;;;14.93;5.10;;;21.30;67.00;;;;;;7933442;28;20176;-50
2022/03/16 06:59:45;;;;;;;13.60;4.80;;;21.40;67.00;;;;;;7929458;28;20180;-53
2022/03/16 07:03:30;;;;;;;13.95;4.88;;;21.50;66.90;;;;;;7903019;28;20278;-48
2022/03/16 07:07:16;;;;;;;11.10;4.80;;;21.50;67.00;;;;;;7904990;28;20556;-49
2022/03/16 07:11:01;;;;;;;7.32;4.95;;;21.60;67.00;;;;;;7934980;28;20263;-52
2022/03/16 07:14:47;;;;;;;17.05;5.22;;;21.60;67.00;;;;;;7911268;28;20240;-49
2022/03/16 07:18:32;;;;;;;17.42;5.45;;;21.60;67.00;;;;;;7905711;28;20220;-49
2022/03/16 07:22:18;;;;;;;10.85;5.18;;;21.60;66.70;;;;;;7902597;28;20208;-51
2022/03/16 07:26:03;;;;;;;16.23;4.80;;;21.60;66.80;;;;;;7903144;28;20188;-50
2022/03/16 07:29:49;;;;;;;12.38;5.10;;;21.50;66.60;;;;;;7908296;28;20203;-48
2022/03/16 07:33:35;;;;;;;10.68;4.93;;;21.60;66.70;;;;;;7926923;28;20221;-49
2022/03/16 07:37:22;;;;;;;8.85;4.78;;;21.60;66.70;;;;;;7902675;28;20250;-50
2022/03/16 07:41:08;;;;;;;9.48;4.88;;;21.60;66.80;;;;;;7901955;28;20260;-48
2022/03/16 07:44:53;;;;;;;8.05;4.63;;;21.60;67.00;;;;;;7910290;28;20215;-50
2022/03/16 07:48:43;;;;;;;5.65;4.63;;;21.60;66.80;;;;;;7922657;28;20318;-48
2022/03/16 07:52:28;;;;;;;11.25;5.38;;;21.70;66.80;;;;;;7899035;28;20204;-49
2022/03/16 07:56:14;;;;;;;13.93;4.75;;;21.80;67.00;;;;;;7901910;28;20717;-50
2022/03/16 07:59:59;;;;;;;11.65;4.85;;;21.80;66.80;;;;;;7909802;28;20183;-48
2022/03/16 08:03:45;;;;;;;9.70;5.20;;;21.80;66.80;;;;;;7933237;28;20614;-48
2022/03/16 08:07:30;;;;;;;9.75;4.55;;;21.90;66.80;;;;;;7933200;28;20638;-52
2022/03/16 08:11:16;;;;;;;9.68;4.82;;;22.00;67.00;;;;;;7933043;28;20173;-49
2022/03/16 08:15:02;;;;;;;12.43;5.03;;;22.00;67.00;;;;;;7923998;28;20216;-49
2022/03/16 08:18:47;;;;;;;11.23;4.90;;;22.10;66.90;;;;;;7901178;28;20173;-49
2022/03/16 08:22:34;;;;;;;10.15;4.70;;;22.10;66.80;;;;;;7900663;28;20197;-50
2022/03/16 08:26:21;;;;;;;13.65;5.05;;;22.10;66.50;;;;;;7901233;28;20175;-49
2022/03/16 08:30:08;;;;;;;11.95;5.57;;;22.10;66.70;;;;;;7910570;28;20188;-48
2022/03/16 08:33:55;;;;;;;8.98;5.13;;;22.10;66.90;;;;;;7932260;28;20327;-48
2022/03/16 08:37:40;;;;;;;12.38;5.05;;;22.10;67.00;;;;;;7932400;28;20172;-48
2022/03/16 08:41:28;;;;;;;14.90;5.47;;;22.10;66.90;;;;;;7931744;28;20702;-48
2022/03/16 08:45:14;;;;;;;10.88;4.97;;;22.20;67.00;;;;;;7920783;28;20658;-49
2022/03/16 08:49:00;;;;;;;15.55;5.25;;;22.10;67.00;;;;;;7900500;28;20576;-50
2022/03/16 08:52:45;;;;;;;6.53;5.40;;;22.10;67.00;;;;;;7899618;28;20222;-49
2022/03/16 08:56:31;;;;;;;6.95;4.90;;;22.20;67.10;;;;;;7900050;28;20164;-51
2022/03/16 09:00:18;;;;;;;8.10;4.63;;;22.20;67.00;;;;;;7911886;28;20241;-49
2022/03/16 09:04:04;;;;;;;9.63;4.65;;;22.20;67.10;;;;;;7931514;28;20196;-49
2022/03/16 09:07:50;;;;;;;14.02;5.15;;;22.20;67.00;;;;;;7931697;28;20240;-48
2022/03/16 09:11:35;;;;;;;7.45;5.78;;;22.20;67.00;;;;;;7930611;28;20184;-49
2022/03/16 09:15:21;;;;;;;8.10;5.13;;;22.20;67.10;;;;;;7918238;28;20516;-48
2022/03/16 09:19:07;;;;;;;14.80;5.57;;;22.20;67.00;;;;;;7929956;28;20194;-50
2022/03/16 09:22:53;;;;;;;10.25;5.70;;;22.30;66.90;;;;;;7930851;28;20200;-50
2022/03/16 09:26:39;;;;;;;9.30;5.38;;;22.30;66.90;;;;;;7930898;28;20596;-48
2022/03/16 09:30:25;;;;;;;9.40;4.97;;;22.30;66.90;;;;;;7916414;28;20177;-51
2022/03/16 09:34:10;;;;;;;8.75;5.70;;;22.30;66.90;;;;;;7899192;28;20200;-50
2022/03/16 09:37:58;;;;;;;6.93;5.00;;;22.40;67.00;;;;;;7899457;28;20177;-47
2022/03/16 09:41:43;;;;;;;13.32;5.68;;;22.40;66.80;;;;;;7898741;28;20164;-49
2022/03/16 09:45:32;;;;;;;6.18;5.20;;;22.40;66.90;;;;;;7913911;28;20182;-52
2022/03/16 09:49:18;;;;;;;5.78;4.95;;;22.50;67.00;;;;;;7930593;28;20282;-48
2022/03/16 09:53:05;;;;;;;10.70;5.45;;;22.50;66.90;;;;;;7928366;28;20211;-48
2022/03/16 09:56:52;;;;;;;6.60;5.28;;;22.50;66.70;;;;;;7930990;28;20180;-52
2022/03/16 10:00:38;;;;;;;6.47;5.55;;;22.50;66.80;;;;;;7914127;28;20185;-48
2022/03/16 10:04:33;;;;;;;8.65;5.38;;;22.60;66.80;;;;;;7899274;28;20273;-50
2022/03/16 10:08:30;;;;;;;10.02;5.75;;;22.60;66.80;;;;;;7899658;28;20168;-49
2022/03/16 10:17:43;;;;;;;10.68;5.95;;;22.60;66.80;;;;;;7922932;28;20188;-51
2022/03/16 10:20:43;;;;;;;9.70;6.32;;;22.70;66.90;;;;;;7929304;28;20915;-54
2022/03/16 10:24:31;;;;;;;8.00;5.78;;;22.70;67.00;;;;;;7929790;28;20818;-49
2022/03/16 10:28:27;;;;;;;8.98;5.53;;;22.70;66.70;;;;;;7919534;28;20189;-49
2022/03/16 10:32:13;;;;;;;9.15;5.65;;;22.70;66.70;;;;;;7918315;28;20249;-48
2022/03/16 10:36:00;;;;;;;7.97;5.78;;;22.70;66.70;;;;;;7898660;28;20177;-51
2022/03/16 10:39:49;;;;;;;6.90;5.72;;;22.70;66.70;;;;;;7900604;28;20276;-49
2022/03/16 10:47:50;;;;;;;7.57;5.90;;;22.70;67.50;;;;;;7909646;28;20586;-49
2022/03/16 10:51:36;;;;;;;7.57;5.75;;;22.80;66.40;;;;;;7903050;28;20200;-49
2022/03/16 10:55:22;;;;;;;14.18;9.27;;;22.70;66.30;;;;;;7903789;28;20845;-48
2022/03/16 10:59:08;;;;;;;15.20;6.65;;;22.70;65.50;;;;;;7908237;28;20180;-49
2022/03/16 11:02:55;;;;;;;10.50;6.03;;;22.60;66.30;;;;;;7914234;28;20212;-49
2022/03/16 11:06:41;;;;;;;8.73;6.05;;;22.60;67.20;;;;;;7915216;28;20264;-52
2022/03/16 11:10:27;;;;;;;12.00;5.72;;;22.60;66.40;;;;;;7934546;28;20182;-49
2022/03/16 11:14:15;;;;;;;6.55;5.47;;;22.50;66.30;;;;;;7929256;28;20681;-50
2022/03/16 11:18:01;;;;;;;11.80;5.90;;;22.50;66.30;;;;;;7903181;28;20172;-51
2022/03/16 11:22:01;;;;;;;9.85;6.18;;;22.50;66.20;;;;;;7902566;28;20195;-49
2022/03/16 11:26:25;;;;;;;8.07;5.90;;;22.50;66.10;;;;;;7902906;28;20607;-49
2022/03/16 11:30:29;;;;;;;11.60;6.03;;;22.40;66.00;;;;;;7915039;28;20203;-48
2022/03/16 11:34:22;;;;;;;10.13;6.00;;;22.40;66.00;;;;;;7934328;28;21065;-51
2022/03/16 11:38:13;;;;;;;10.95;6.15;;;22.40;66.00;;;;;;7934414;28;20175;-53
2022/03/16 11:42:00;;;;;;;10.25;6.43;;;22.40;65.90;;;;;;7933302;28;20253;-49
2022/03/16 11:45:54;;;;;;;9.85;6.38;;;22.50;65.90;;;;;;7921437;28;20199;-51
2022/03/16 11:49:47;;;;;;;15.32;6.85;;;22.50;65.80;;;;;;7933267;28;20197;-53
2022/03/16 11:57:52;;;;;;;13.70;7.63;;;22.50;65.60;;;;;;7910228;28;20180;-53
2022/03/16 12:01:39;;;;;;;18.65;7.93;;;22.60;65.60;;;;;;7925776;28;20179;-49
2022/03/16 12:05:26;;;;;;;18.63;8.45;;;22.60;65.50;;;;;;7933502;28;20271;-50
2022/03/16 12:09:20;;;;;;;16.90;8.82;;;22.70;65.80;;;;;;7933318;28;20549;-48
2022/03/16 12:13:09;;;;;;;17.73;9.85;;;22.70;65.90;;;;;;7933301;28;20212;-49
2022/03/16 12:17:13;;;;;;;24.95;11.00;;;22.80;66.00;;;;;;7903367;28;20216;-49
2022/03/16 12:21:04;;;;;;;21.25;11.35;;;22.80;65.80;;;;;;7900933;28;20176;-51
2022/03/16 12:29:05;;;;;;;23.10;12.40;;;23.00;65.80;;;;;;7905173;28;20259;-48
2022/03/16 12:32:52;;;;;;;24.10;12.35;;;23.00;65.70;;;;;;7932239;28;20595;-48
2022/03/16 12:36:37;;;;;;;21.42;11.82;;;23.00;65.80;;;;;;7932408;28;20626;-52
2022/03/16 12:40:26;;;;;;;18.63;12.15;;;23.00;66.00;;;;;;7929152;28;20195;-51
2022/03/16 12:44:16;;;;;;;23.20;12.70;;;22.90;66.00;;;;;;7907596;28;20287;-50
2022/03/16 12:48:10;;;;;;;27.63;12.80;;;22.90;66.10;;;;;;7932121;28;20172;-51
2022/03/16 12:52:02;;;;;;;18.58;11.90;;;23.00;66.40;;;;;;7931322;28;20208;-48
2022/03/16 12:55:56;;;;;;;20.27;12.38;;;22.90;66.30;;;;;;7931750;27;20204;-48
2022/03/16 12:59:48;;;;;;;16.67;12.23;;;22.90;66.50;;;;;;7920016;28;20207;-49
2022/03/16 13:03:33;;;;;;;22.10;12.13;;;22.90;66.60;;;;;;7900541;28;20216;-51
2022/03/16 13:07:20;;;;;;;25.55;11.88;;;22.90;66.50;;;;;;7900493;28;20184;-50
2022/03/16 13:11:15;;;;;;;19.70;11.95;;;22.90;66.50;;;;;;7899520;28;20185;-49
2022/03/16 13:15:02;;;;;;;20.05;12.32;;;22.90;66.70;;;;;;7914338;28;20799;-48
2022/03/16 13:18:48;;;;;;;22.45;11.75;;;22.90;66.60;;;;;;7931367;28;20175;-50
2022/03/16 13:22:34;;;;;;;19.02;10.82;;;22.80;66.80;;;;;;7930714;28;20224;-52
2022/03/16 13:26:23;;;;;;;20.25;10.85;;;22.80;67.20;;;;;;7931382;28;20693;-51
2022/03/16 13:30:12;;;;;;;19.98;11.32;;;22.80;67.40;;;;;;7914831;28;20529;-48
2022/03/16 13:34:01;;;;;;;18.25;10.30;;;22.70;67.10;;;;;;7899434;28;20200;-48
2022/03/16 13:38:01;;;;;;;22.60;10.65;;;22.70;67.40;;;;;;7899919;28;20175;-49
2022/03/16 13:42:12;;;;;;;14.50;10.25;;;22.70;67.60;;;;;;7899331;28;20185;-48
2022/03/16 13:45:58;;;;;;;17.73;10.18;;;22.70;67.70;;;;;;7922843;28;20176;-48
2022/03/16 13:49:48;;;;;;;18.77;10.55;;;22.60;67.60;;;;;;7924444;28;20210;-48
2022/03/16 13:53:48;;;;;;;15.95;10.07;;;22.70;67.70;;;;;;7899542;28;20226;-50
2022/03/16 13:57:41;;;;;;;21.60;10.52;;;22.70;67.80;;;;;;7911663;28;20205;-54
2022/03/16 14:01:28;;;;;;;15.85;9.95;;;22.70;67.70;;;;;;7903123;28;20181;-51
2022/03/16 14:05:19;;;;;;;15.80;9.80;;;22.70;67.60;;;;;;7899424;28;20200;-49
2022/03/16 14:09:20;;;;;;;13.95;9.50;;;22.70;67.50;;;;;;7899020;28;20252;-49
2022/03/16 14:13:09;;;;;;;13.25;9.25;;;22.70;67.40;;;;;;7898976;28;20236;-50
2022/03/16 14:16:55;;;;;;;16.83;9.43;;;22.70;67.10;;;;;;7924436;28;20267;-50
2022/03/16 14:20:51;;;;;;;14.80;9.05;;;22.80;67.00;;;;;;7936298;28;20228;-49
2022/03/16 14:24:37;;;;;;;17.70;8.77;;;22.90;66.80;;;;;;7933871;27;20192;-49
2022/03/16 14:28:23;;;;;;;13.52;8.88;;;22.90;66.70;;;;;;7927062;28;20188;-49
2022/03/16 14:32:08;;;;;;;18.25;8.52;;;23.00;66.50;;;;;;7903796;28;20201;-49
2022/03/16 14:35:59;;;;;;;20.73;8.75;;;22.90;66.20;;;;;;7910199;28;20807;-50
2022/03/16 14:39:44;;;;;;;16.05;8.15;;;22.90;65.90;;;;;;7907163;28;20184;-49
2022/03/16 14:43:30;;;;;;;13.63;8.20;;;22.90;65.70;;;;;;7905656;28;20203;-50
2022/03/16 14:47:16;;;;;;;22.08;7.95;;;22.90;65.70;;;;;;7912247;28;20179;-50
2022/03/16 14:51:02;;;;;;;15.77;7.88;;;22.90;65.60;;;;;;7933419;28;20274;-54
2022/03/16 14:54:48;;;;;;;19.65;8.65;;;22.90;65.50;;;;;;7933352;28;20207;-51
2022/03/16 14:58:33;;;;;;;18.88;8.48;;;22.90;65.40;;;;;;7933485;28;20233;-49
2022/03/16 15:02:19;;;;;;;14.15;7.65;;;22.90;65.50;;;;;;7906786;28;20196;-50
2022/03/16 15:06:04;;;;;;;14.70;8.40;;;22.80;65.40;;;;;;7904304;28;20192;-49
2022/03/16 15:09:50;;;;;;;12.38;7.50;;;22.80;66.20;;;;;;7904276;28;20173;-49
2022/03/16 15:13:35;;;;;;;16.73;7.72;;;22.80;65.40;;;;;;7904465;28;20803;-50
2022/03/16 15:17:21;;;;;;;13.35;7.43;;;22.80;65.40;;;;;;7912148;28;20185;-51
2022/03/16 15:21:10;;;;;;;16.67;7.35;;;22.80;65.40;;;;;;7914661;28;20171;-49
2022/03/16 15:24:56;;;;;;;18.50;7.22;;;22.70;65.00;;;;;;7918560;28;20205;-50
2022/03/16 15:28:41;;;;;;;14.02;7.35;;;22.70;65.20;;;;;;7921640;28;20188;-49
2022/03/16 15:32:27;;;;;;;14.57;7.95;;;22.70;65.20;;;;;;7915880;28;20204;-52
2022/03/16 15:36:13;;;;;;;13.57;7.38;;;22.60;65.20;;;;;;7917835;28;20179;-49
2022/03/16 15:44:02;;;;;;;16.40;7.25;;;22.60;65.20;;;;;;7903654;28;20594;-49
2022/03/16 15:47:48;;;;;;;10.65;6.72;;;22.60;65.20;;;;;;7903497;28;20188;-51
2022/03/16 15:51:33;;;;;;;10.73;7.05;;;22.60;65.20;;;;;;7903074;28;20577;-50
2022/03/16 15:55:19;;;;;;;13.82;6.70;;;22.60;65.20;;;;;;7903324;28;20205;-49
2022/03/16 15:59:04;;;;;;;11.63;7.20;;;22.60;65.10;;;;;;7903042;28;20173;-50
2022/03/16 16:02:51;;;;;;;8.70;5.68;;;22.60;65.00;;;;;;7902642;28;20283;-53
2022/03/16 16:06:38;;;;;;;8.38;6.38;;;22.60;65.00;;;;;;7902783;28;20766;-51
2022/03/16 16:10:24;;;;;;;11.63;6.03;;;22.70;65.00;;;;;;7902607;28;20180;-49
2022/03/16 16:14:10;;;;;;;10.80;6.10;;;22.80;64.90;;;;;;7902327;28;20212;-49
2022/03/16 16:17:56;;;;;;;8.98;6.13;;;22.90;64.80;;;;;;7902383;28;20212;-49
2022/03/16 16:21:42;;;;;;;8.52;5.93;;;23.00;64.80;;;;;;7901940;28;20187;-50
2022/03/16 16:25:30;;;;;;;7.63;5.20;;;23.10;64.70;;;;;;7902115;28;20263;-50
2022/03/16 16:33:15;;;;;;;7.75;5.32;;;23.30;64.40;;;;;;7901933;28;20196;-49
2022/03/16 16:37:02;;;;;;;10.65;5.95;;;23.40;64.30;;;;;;7901750;28;20646;-50
2022/03/16 16:40:48;;;;;;;6.75;5.32;;;23.40;64.20;;;;;;7901666;28;20192;-49
2022/03/16 16:44:33;;;;;;;7.65;5.75;;;23.40;64.20;;;;;;7901932;28;20196;-50
2022/03/16 16:48:23;;;;;;;15.60;5.40;;;23.50;64.20;;;;;;7901438;28;20177;-50
2022/03/16 16:52:09;;;;;;;6.97;5.32;;;23.50;64.20;;;;;;7901219;28;20212;-51
2022/03/16 16:55:59;;;;;;;6.47;4.90;;;23.50;64.10;;;;;;7901196;28;20611;-50
2022/03/16 16:59:44;;;;;;;7.32;5.05;;;23.50;64.10;;;;;;7901097;28;20210;-50
2022/03/16 17:03:30;;;;;;;5.75;4.82;;;23.40;64.10;;;;;;7901066;28;20192;-50
2022/03/16 17:07:15;;;;;;;5.85;4.53;;;23.40;64.10;;;;;;7901241;28;20181;-50
2022/03/16 17:11:01;;;;;;;7.70;4.80;;;23.40;64.20;;;;;;7900856;28;20184;-49
2022/03/16 17:14:46;;;;;;;7.30;4.45;;;23.40;64.20;;;;;;7900721;28;20265;-49
2022/03/16 17:18:33;;;;;;;7.55;5.07;;;23.40;64.20;;;;;;7900851;28;20663;-50
2022/03/16 17:22:20;;;;;;;5.75;4.90;;;23.30;64.30;;;;;;7900762;28;20733;-50
2022/03/16 17:26:07;;;;;;;8.63;4.88;;;23.30;64.40;;;;;;7901153;28;20165;-49
2022/03/16 17:29:52;;;;;;;6.85;4.90;;;23.30;64.40;;;;;;7901299;28;20685;-49
2022/03/16 17:33:38;;;;;;;8.93;4.75;;;23.20;64.40;;;;;;7900532;28;20602;-49
2022/03/16 17:37:23;;;;;;;15.07;4.72;;;23.20;64.40;;;;;;7900649;28;20187;-51
2022/03/16 17:49:17;;;;;;;7.65;4.65;;;23.10;64.40;;;;;;7902057;28;20199;-49
2022/03/16 17:53:04;;;;;;;9.32;4.97;;;23.00;64.50;;;;;;7906567;28;20580;-49
2022/03/16 17:56:53;;;;;;;22.30;6.53;;;23.10;64.50;;;;;;7906350;28;20184;-50
2022/03/16 18:00:43;;;;;;;8.65;4.90;;;23.00;64.20;;;;;;7906307;28;20174;-49
2022/03/16 18:04:29;;;;;;;19.48;6.07;;;23.00;64.30;;;;;;7906746;28;20733;-50
2022/03/16 18:08:16;;;;;;;13.18;5.43;;;22.90;64.50;;;;;;7906412;28;20604;-52
2022/03/16 18:16:07;;;;;;;12.25;5.40;;;22.90;64.60;;;;;;7906110;28;20623;-50
2022/03/16 18:19:52;;;;;;;16.13;6.40;;;22.80;64.60;;;;;;7906210;28;20225;-49
2022/03/16 18:23:39;;;;;;;18.25;6.03;;;22.80;64.60;;;;;;7905721;28;20196;-50
2022/03/16 18:27:25;;;;;;;19.67;6.70;;;22.80;64.60;;;;;;7905631;28;20251;-51
2022/03/16 18:31:11;;;;;;;23.08;7.53;;;22.80;64.50;;;;;;7905404;28;20191;-51
2022/03/16 18:34:57;;;;;;;13.18;7.13;;;22.80;64.50;;;;;;7905307;28;20208;-50
2022/03/16 18:38:43;;;;;;;22.77;8.60;;;22.80;65.40;;;;;;7905730;28;20208;-50
2022/03/16 18:42:29;;;;;;;17.17;7.78;;;22.80;64.50;;;;;;7905254;28;20208;-50
2022/03/16 18:46:14;;;;;;;19.90;8.45;;;22.80;64.50;;;;;;7905228;28;20168;-51
2022/03/16 18:50:00;;;;;;;16.90;8.93;;;22.80;64.40;;;;;;7930270;28;20268;-49
2022/03/16 18:53:48;;;;;;;27.50;10.45;;;22.80;64.30;;;;;;7906873;28;20837;-52
2022/03/16 18:57:34;;;;;;;25.13;11.10;;;22.90;64.40;;;;;;7904773;28;20772;-49
2022/03/16 19:01:25;;;;;;;34.05;11.48;;;22.90;64.30;;;;;;7904407;28;20195;-49
2022/03/16 19:05:12;;;;;;;32.97;11.73;;;23.00;64.50;;;;;;7904555;28;20278;-50
2022/03/16 19:08:57;;;;;;;30.73;11.73;;;23.10;64.40;;;;;;7905068;28;20176;-50
2022/03/16 19:16:48;;;;;;;36.45;12.02;;;23.20;64.40;;;;;;7904443;28;20211;-50
2022/03/16 19:20:34;;;;;;;24.90;11.65;;;23.30;64.30;;;;;;7904350;28;20169;-50
2022/03/16 19:24:20;;;;;;;25.77;10.65;;;23.30;64.20;;;;;;7904345;28;20196;-49
2022/03/16 19:28:06;;;;;;;27.83;11.63;;;23.40;64.10;;;;;;7904182;28;20247;-51
2022/03/16 19:31:52;;;;;;;28.40;11.15;;;23.30;64.10;;;;;;7903836;28;20234;-49
2022/03/16 19:35:38;;;;;;;23.35;10.77;;;23.30;64.00;;;;;;7904011;28;20200;-52
2022/03/16 19:39:23;;;;;;;34.00;12.80;;;23.30;64.10;;;;;;7903702;28;20260;-49
2022/03/16 19:43:09;;;;;;;30.10;12.27;;;23.30;64.20;;;;;;7903287;28;20263;-50
2022/03/16 19:46:58;;;;;;;32.47;12.85;;;23.20;64.30;;;;;;7903301;28;20581;-52
2022/03/16 19:50:43;;;;;;;27.73;12.82;;;23.20;64.30;;;;;;7902780;28;20188;-51
2022/03/16 19:54:33;;;;;;;25.40;13.63;;;23.20;64.40;;;;;;7902971;28;20200;-50
2022/03/16 19:58:23;;;;;;;42.80;14.88;;;23.10;64.70;;;;;;7902762;28;20180;-49
2022/03/16 20:02:10;;;;;;;45.22;14.63;;;23.10;65.20;;;;;;7902657;28;20196;-53
2022/03/16 20:05:56;;;;;;;30.02;14.70;;;23.00;66.20;;;;;;7902301;28;20177;-49
2022/03/16 20:09:42;;;;;;;35.92;14.45;;;23.00;66.70;;;;;;7921303;28;20597;-49
2022/03/16 20:13:27;;;;;;;31.45;13.88;;;22.90;67.00;;;;;;7933348;28;20216;-49
2022/03/16 20:17:13;;;;;;;18.95;13.73;;;22.90;67.40;;;;;;7905853;27;20532;-49
2022/03/16 20:21:00;;;;;;;33.00;14.45;;;22.90;67.70;;;;;;7902330;28;20169;-49
2022/03/16 20:24:45;;;;;;;23.35;13.52;;;22.80;67.80;;;;;;7901935;28;20234;-49
2022/03/16 20:28:31;;;;;;;23.88;13.43;;;22.80;68.00;;;;;;7902028;28;20184;-49
2022/03/16 20:32:19;;;;;;;30.13;13.15;;;22.80;68.10;;;;;;7901805;28;20189;-51
2022/03/16 20:36:05;;;;;;;26.58;13.02;;;22.70;68.30;;;;;;7901774;28;20279;-50
2022/03/16 20:39:51;;;;;;;20.30;12.55;;;22.70;68.40;;;;;;7901538;28;20176;-49
2022/03/16 20:43:37;;;;;;;22.67;12.43;;;22.80;68.40;;;;;;7901638;28;20674;-49
2022/03/16 20:47:23;;;;;;;23.88;12.23;;;22.60;68.40;;;;;;7900353;28;20701;-49
2022/03/16 20:51:13;;;;;;;20.25;11.23;;;22.60;68.60;;;;;;7901180;28;20565;-50